createdAt,value
2022-12-16T00:01:15.912Z,99160.28
2022-12-16T00:03:47.747Z,99164.50
2022-12-16T00:06:14.091Z,99170.38
2022-12-16T00:08:40.497Z,99163.38
2022-12-16T00:11:08.068Z,99165.06
2022-12-16T00:13:36.269Z,99171.00
2022-12-16T00:16:12.081Z,99165.84
2022-12-16T00:18:39.073Z,99165.81
2022-12-16T00:21:06.515Z,99167.59
2022-12-16T00:23:34.815Z,99171.00
2022-12-16T00:26:02.157Z,99174.50
2022-12-16T00:28:28.541Z,99174.47
2022-12-16T00:30:55.943Z,99176.16
2022-12-16T00:33:24.281Z,99179.56
2022-12-16T00:35:51.348Z,99187.25
2022-12-16T00:38:18.868Z,99174.25
2022-12-16T00:40:45.356Z,99172.34
2022-12-16T00:43:11.734Z,99173.16
2022-12-16T00:45:39.221Z,99173.03
2022-12-16T00:48:06.674Z,99172.88
2022-12-16T00:50:33.380Z,99190.06
2022-12-16T00:53:00.196Z,99186.44
2022-12-16T00:55:27.167Z,99182.91
2022-12-16T00:57:53.538Z,99185.34
2022-12-16T01:00:22.363Z,99178.34
2022-12-16T01:02:50.586Z,99179.13
2022-12-16T01:05:20.631Z,99177.34
2022-12-16T01:07:47.967Z,99172.09
2022-12-16T01:10:14.519Z,99174.59
2022-12-16T01:12:40.904Z,99175.47
2022-12-16T01:17:47.017Z,99185.84
2022-12-16T01:20:14.279Z,99184.19
2022-12-16T01:22:42.127Z,99189.41
2022-12-16T01:25:11.069Z,99183.44
2022-12-16T01:27:37.484Z,99187.84
2022-12-16T01:30:04.793Z,99190.56
2022-12-16T01:32:31.425Z,99193.22
2022-12-16T01:34:58.793Z,99200.19
2022-12-16T01:37:25.360Z,99195.03
2022-12-16T01:39:52.322Z,99200.28
2022-12-16T01:42:21.284Z,99209.84
2022-12-16T01:44:52.232Z,99202.97
2022-12-16T01:47:32.881Z,99209.09
2022-12-16T01:50:01.541Z,99211.75
2022-12-16T01:52:36.217Z,99213.56
2022-12-16T01:55:09.382Z,99213.66
2022-12-16T01:57:51.455Z,99215.47
2022-12-16T02:00:22.224Z,99219.81
2022-12-16T02:02:49.560Z,99213.84
2022-12-16T02:05:20.583Z,99220.00
2022-12-16T02:08:14.930Z,99222.81
2022-12-16T02:10:44.290Z,99215.94
2022-12-16T02:13:47.913Z,99221.25
2022-12-16T02:16:30.400Z,99218.59
2022-12-16T02:19:10.863Z,99213.44
2022-12-16T02:21:49.135Z,99220.56
2022-12-16T02:24:45.069Z,99222.38
2022-12-16T02:27:30.182Z,99215.53
2022-12-16T02:30:06.599Z,99214.03
2022-12-16T02:32:51.645Z,99219.25
2022-12-16T02:35:38.668Z,99222.09
2022-12-16T02:38:36.093Z,99220.47
2022-12-16T02:41:12.676Z,99227.44
2022-12-16T02:43:50.326Z,99227.53
2022-12-16T02:46:19.225Z,99228.44
2022-12-16T02:48:45.883Z,99231.94
2022-12-16T02:51:12.669Z,99234.56
2022-12-16T02:53:42.086Z,99232.91
2022-12-16T02:56:36.517Z,99241.66
2022-12-16T02:59:38.421Z,99236.50
2022-12-16T03:02:16.426Z,99238.31
2022-12-16T03:04:52.231Z,99242.75
2022-12-16T03:07:22.716Z,99242.81
2022-12-16T03:09:51.113Z,99244.63
2022-12-16T03:12:20.151Z,99236.91
2022-12-16T03:14:50.109Z,99232.66
2022-12-16T03:17:18.634Z,99235.28
2022-12-16T03:19:53.295Z,99232.75
2022-12-16T03:22:27.958Z,99244.91
2022-12-16T03:24:54.471Z,99240.59
2022-12-16T03:27:28.526Z,99239.81
2022-12-16T03:30:24.203Z,99249.41
2022-12-16T03:33:03.888Z,99251.13
2022-12-16T03:35:39.330Z,99258.13
2022-12-16T03:38:10.090Z,99250.41
2022-12-16T03:40:41.340Z,99253.91
2022-12-16T03:43:09.250Z,99249.66
2022-12-16T03:45:41.227Z,99255.75
2022-12-16T03:48:12.834Z,99254.06
2022-12-16T03:50:40.628Z,99256.69
2022-12-16T03:53:07.905Z,99266.22
2022-12-16T03:55:35.363Z,99268.00
2022-12-16T03:58:01.882Z,99258.59
2022-12-16T04:00:28.452Z,99264.69
2022-12-16T04:02:55.180Z,99265.59
2022-12-16T04:05:22.862Z,99263.91
2022-12-16T04:07:49.336Z,99273.44
2022-12-16T04:10:16.372Z,99270.88
2022-12-16T04:13:01.376Z,99270.00
2022-12-16T04:15:46.782Z,99274.34
2022-12-16T04:18:37.487Z,99281.25
2022-12-16T04:21:23.080Z,99267.41
2022-12-16T04:24:11.872Z,99279.53
2022-12-16T04:26:57.037Z,99282.06
2022-12-16T04:29:24.189Z,99282.06
2022-12-16T04:31:52.105Z,99286.38
2022-12-16T04:34:29.395Z,99284.59
2022-12-16T04:37:20.496Z,99291.53
2022-12-16T04:40:06.329Z,99289.75
2022-12-16T04:42:52.126Z,99292.31
2022-12-16T04:45:37.642Z,99292.28
2022-12-16T04:48:23.018Z,99296.53
2022-12-16T04:51:07.952Z,99303.41
2022-12-16T04:53:53.207Z,99304.28
2022-12-16T04:56:38.566Z,99312.94
2022-12-16T04:59:37.091Z,99312.94
2022-12-16T05:02:21.938Z,99318.09
2022-12-16T05:05:07.103Z,99322.44
2022-12-16T05:07:51.913Z,99319.03
2022-12-16T05:10:36.903Z,99319.88
2022-12-16T05:13:21.679Z,99323.38
2022-12-16T05:16:06.724Z,99321.66
2022-12-16T05:18:51.812Z,99328.56
2022-12-16T05:21:36.764Z,99327.75
2022-12-16T05:24:21.929Z,99335.53
2022-12-16T05:27:06.729Z,99339.91
2022-12-16T05:29:51.604Z,99345.13
2022-12-16T05:32:36.705Z,99353.72
2022-12-16T05:35:21.987Z,99349.50
2022-12-16T05:38:07.283Z,99353.06
2022-12-16T05:40:52.427Z,99360.03
2022-12-16T05:43:37.535Z,99361.81
2022-12-16T05:46:22.317Z,99363.66
2022-12-16T05:49:07.410Z,99366.31
2022-12-16T05:51:52.440Z,99368.97
2022-12-16T05:54:37.423Z,99363.84
2022-12-16T05:57:22.812Z,99366.44
2022-12-16T06:00:07.827Z,99367.34
2022-12-16T06:02:52.661Z,99375.13
2022-12-16T06:05:37.609Z,99371.69
2022-12-16T06:08:23.087Z,99373.47
2022-12-16T06:11:08.265Z,99380.38
2022-12-16T06:13:53.333Z,99376.09
2022-12-16T06:16:38.244Z,99384.72
2022-12-16T06:19:23.745Z,99383.88
2022-12-16T06:22:08.471Z,99378.69
2022-12-16T06:24:53.303Z,99378.69
2022-12-16T06:27:38.066Z,99387.28
2022-12-16T06:30:23.424Z,99383.81
2022-12-16T06:33:08.329Z,99387.25
2022-12-16T06:35:53.318Z,99388.94
2022-12-16T06:38:38.169Z,99397.50
2022-12-16T06:41:23.212Z,99400.94
2022-12-16T06:44:08.495Z,99405.22
2022-12-16T06:46:53.616Z,99411.19
2022-12-16T06:49:38.718Z,99412.91
2022-12-16T06:52:23.525Z,99418.94
2022-12-16T06:55:08.400Z,99417.19
2022-12-16T06:57:53.376Z,99418.91
2022-12-16T07:00:38.776Z,99418.88
2022-12-16T07:03:24.313Z,99423.22
2022-12-16T07:06:13.174Z,99429.25
2022-12-16T07:08:58.249Z,99425.81
2022-12-16T07:11:43.202Z,99430.13
2022-12-16T07:14:28.085Z,99430.13
2022-12-16T07:17:17.056Z,99435.31
2022-12-16T07:20:02.431Z,99437.88
2022-12-16T07:22:47.127Z,99445.63
2022-12-16T07:25:31.977Z,99451.59
2022-12-16T07:28:16.726Z,99455.84
2022-12-16T07:31:02.649Z,99471.31
2022-12-16T07:33:47.802Z,99468.66
2022-12-16T07:36:33.101Z,99477.22
2022-12-16T07:39:18.166Z,99479.72
2022-12-16T07:42:02.796Z,99493.47
2022-12-16T07:44:47.524Z,99495.16
2022-12-16T07:47:32.182Z,99503.72
2022-12-16T07:50:16.871Z,99507.97
2022-12-16T07:53:01.724Z,99511.41
2022-12-16T07:55:46.470Z,99516.50
2022-12-16T07:58:31.122Z,99510.41
2022-12-16T08:01:15.991Z,99515.56
2022-12-16T08:04:00.762Z,99513.75
2022-12-16T08:06:45.634Z,99522.38
2022-12-16T08:09:30.269Z,99530.09
2022-12-16T08:12:15.002Z,99525.72
2022-12-16T08:14:59.714Z,99533.44
2022-12-16T08:17:44.470Z,99529.06
2022-12-16T08:20:29.790Z,99536.78
2022-12-16T08:23:14.415Z,99548.78
2022-12-16T08:25:59.222Z,99547.88
2022-12-16T08:28:43.831Z,99557.25
2022-12-16T08:31:28.740Z,99554.53
2022-12-16T08:34:13.539Z,99561.34
2022-12-16T08:36:58.374Z,99567.28
2022-12-16T08:39:43.059Z,99569.81
2022-12-16T08:42:27.691Z,99567.13
2022-12-16T08:45:12.432Z,99580.88
2022-12-16T08:47:57.193Z,99587.63
2022-12-16T08:50:41.995Z,99591.03
2022-12-16T08:53:27.320Z,99597.81
2022-12-16T08:56:12.508Z,99596.84
2022-12-16T08:58:57.328Z,99605.38
2022-12-16T09:01:42.235Z,99605.25
2022-12-16T09:04:27.228Z,99612.91
2022-12-16T09:07:11.914Z,99617.91
2022-12-16T09:09:56.654Z,99616.94
2022-12-16T09:12:41.822Z,99622.88
2022-12-16T09:15:27.313Z,99619.41
2022-12-16T09:18:15.631Z,99628.00
2022-12-16T09:21:00.868Z,99627.94
2022-12-16T09:23:46.147Z,99640.00
2022-12-16T09:26:31.481Z,99640.81
2022-12-16T09:29:16.342Z,99639.94
2022-12-16T09:32:01.459Z,99652.81
2022-12-16T09:34:46.236Z,99650.13
2022-12-16T09:37:30.973Z,99649.13
2022-12-16T09:40:15.795Z,99657.63
2022-12-16T09:43:09.328Z,99661.88
2022-12-16T09:45:57.293Z,99661.69
2022-12-16T09:49:11.934Z,99659.91
2022-12-16T09:51:58.964Z,99670.06
2022-12-16T09:54:48.116Z,99670.84
2022-12-16T09:57:33.751Z,99672.41
2022-12-16T10:00:25.008Z,99676.72
2022-12-16T10:03:10.469Z,99678.25
2022-12-16T10:06:09.747Z,99683.41
2022-12-16T10:09:05.755Z,99680.66
2022-12-16T10:12:20.019Z,99688.38
2022-12-16T10:15:17.999Z,99681.31
2022-12-16T10:18:04.786Z,99691.59
2022-12-16T10:21:02.431Z,99686.34
2022-12-16T10:23:56.921Z,99691.41
2022-12-16T10:27:43.414Z,99693.97
2022-12-16T10:30:33.266Z,99708.41
2022-12-16T10:33:18.992Z,99702.19
2022-12-16T10:36:15.767Z,99704.72
2022-12-16T10:39:08.681Z,99700.19
2022-12-16T10:41:56.788Z,99692.97
2022-12-16T10:44:41.572Z,99699.66
2022-12-16T10:47:28.759Z,99690.75
2022-12-16T10:50:13.498Z,99694.84
2022-12-16T10:53:37.601Z,99697.19
2022-12-16T10:57:05.782Z,99703.78
2022-12-16T10:59:59.231Z,99703.59
2022-12-16T11:02:45.778Z,99701.75
2022-12-16T11:06:01.133Z,99711.22
2022-12-16T11:08:55.528Z,99709.34
2022-12-16T11:11:43.657Z,99709.09
2022-12-16T11:17:54.035Z,99709.72
2022-12-16T11:20:43.390Z,99711.28
2022-12-16T11:23:38.889Z,99713.75
2022-12-16T11:26:33.089Z,99716.44
2022-12-16T11:29:20.958Z,99702.81
2022-12-16T11:32:13.311Z,99704.75
2022-12-16T11:35:00.143Z,99697.81
2022-12-16T11:37:47.950Z,99702.38
2022-12-16T11:40:35.631Z,99694.53
2022-12-16T11:43:24.399Z,99688.19
2022-12-16T11:46:11.135Z,99703.03
2022-12-16T11:49:25.742Z,99695.03
2022-12-16T11:52:36.346Z,99695.88
2022-12-16T11:56:06.562Z,99699.41
2022-12-16T11:58:48.011Z,99701.94
2022-12-16T12:01:45.587Z,99694.06
2022-12-16T12:04:32.902Z,99700.06
2022-12-16T12:07:45.361Z,99704.25
2022-12-16T12:11:09.585Z,99709.78
2022-12-16T12:14:06.532Z,99709.72
2022-12-16T12:17:04.401Z,99706.94
2022-12-16T12:20:06.855Z,99710.09
2022-12-16T12:22:57.360Z,99716.59
2022-12-16T12:25:57.318Z,99715.50
2022-12-16T12:28:53.585Z,99718.25
2022-12-16T12:31:52.786Z,99713.88
2022-12-16T12:34:58.488Z,99719.28
2022-12-16T12:37:52.350Z,99724.13
2022-12-16T12:40:59.683Z,99724.19
2022-12-16T12:44:15.676Z,99722.75
2022-12-16T12:47:04.019Z,99727.16
2022-12-16T12:50:02.873Z,99719.50
2022-12-16T12:53:09.881Z,99727.34
2022-12-16T12:56:08.668Z,99730.66
2022-12-16T12:58:56.512Z,99735.03
2022-12-16T13:01:48.014Z,99728.78
2022-12-16T13:04:36.964Z,99729.34
2022-12-16T13:07:23.266Z,99730.16
2022-12-16T13:10:43.974Z,99735.34
2022-12-16T13:13:52.609Z,99736.66
2022-12-16T13:20:04.810Z,99749.19
2022-12-16T13:22:52.847Z,99750.81
2022-12-16T13:25:58.584Z,99746.72
2022-12-16T13:29:03.167Z,99748.44
2022-12-16T13:31:49.212Z,99752.88
2022-12-16T13:34:34.236Z,99763.72
2022-12-16T13:37:28.274Z,99756.78
2022-12-16T13:40:32.270Z,99766.25
2022-12-16T13:43:23.324Z,99764.97
2022-12-16T13:46:18.147Z,99766.78
2022-12-16T13:49:03.315Z,99768.91
2022-12-16T13:51:57.192Z,99774.72
2022-12-16T13:55:11.123Z,99770.63
2022-12-16T13:58:01.748Z,99770.19
2022-12-16T14:00:47.571Z,99780.84
2022-12-16T14:03:46.123Z,99785.31
2022-12-16T14:06:38.827Z,99791.28
2022-12-16T14:09:36.553Z,99788.34
2022-12-16T14:12:29.789Z,99799.44
2022-12-16T14:15:24.216Z,99806.25
2022-12-16T14:18:43.566Z,99813.13
2022-12-16T14:21:34.315Z,99818.00
2022-12-16T14:24:46.521Z,99825.03
2022-12-16T14:27:41.136Z,99828.81
2022-12-16T14:30:35.209Z,99838.31
2022-12-16T14:33:41.305Z,99845.66
2022-12-16T14:36:46.084Z,99852.53
2022-12-16T14:39:42.531Z,99854.09
2022-12-16T14:42:45.945Z,99854.81
2022-12-16T14:45:46.807Z,99865.44
2022-12-16T14:48:46.015Z,99868.91
2022-12-16T14:51:53.418Z,99866.56
2022-12-16T14:54:44.604Z,99872.75
2022-12-16T14:57:50.052Z,99875.69
2022-12-16T15:00:40.957Z,99874.81
2022-12-16T15:03:52.329Z,99887.31
2022-12-16T15:06:48.495Z,99882.06
2022-12-16T15:09:57.697Z,99889.06
2022-12-16T15:12:46.592Z,99892.31
2022-12-16T15:15:44.959Z,99890.47
2022-12-16T15:18:36.811Z,99903.25
2022-12-16T15:21:22.206Z,99913.38
2022-12-16T15:24:07.388Z,99916.47
2022-12-16T15:26:53.667Z,99923.88
2022-12-16T15:29:59.846Z,99915.72
2022-12-16T15:32:44.729Z,99923.84
2022-12-16T15:35:44.748Z,99924.28
2022-12-16T15:38:45.114Z,99938.41
2022-12-16T15:41:38.630Z,99942.28
2022-12-16T15:44:23.954Z,99949.59
2022-12-16T15:47:08.679Z,99956.94
2022-12-16T15:50:03.776Z,99953.03
2022-12-16T15:52:49.170Z,99962.00
2022-12-16T15:55:48.196Z,99972.72
2022-12-16T15:58:46.247Z,99965.94
2022-12-16T16:01:34.987Z,99963.47
2022-12-16T16:04:20.801Z,99966.19
2022-12-16T16:07:11.108Z,99964.59
2022-12-16T16:09:58.569Z,99969.00
2022-12-16T16:12:44.428Z,99974.31
2022-12-16T16:15:32.585Z,99976.19
2022-12-16T16:18:21.388Z,99975.50
2022-12-16T16:21:07.057Z,99980.81
2022-12-16T16:23:52.276Z,99987.94
2022-12-16T16:26:40.420Z,99994.22
2022-12-16T16:29:27.593Z,99992.59
2022-12-16T16:32:12.773Z,99996.22
2022-12-16T16:34:57.613Z,100001.50
2022-12-16T16:37:42.486Z,100004.19
2022-12-16T16:40:49.767Z,100008.59
2022-12-16T16:43:35.911Z,100012.03
2022-12-16T16:46:31.512Z,100019.03
2022-12-16T16:49:16.903Z,100014.69
2022-12-16T16:52:01.806Z,100019.88
2022-12-16T16:54:47.130Z,100015.56
2022-12-16T16:57:32.440Z,100015.56
2022-12-16T17:00:17.876Z,100010.38
2022-12-16T17:03:03.429Z,100017.31
2022-12-16T17:05:48.501Z,100023.38
2022-12-16T17:08:33.591Z,100027.69
2022-12-16T17:11:18.590Z,100029.44
2022-12-16T17:14:03.404Z,100029.44
2022-12-16T17:16:48.212Z,100042.41
2022-12-16T17:19:33.100Z,100049.31
2022-12-16T17:22:17.877Z,100051.91
2022-12-16T17:25:02.896Z,100045.84
2022-12-16T17:27:47.904Z,100062.31
2022-12-16T17:30:44.925Z,100066.63
2022-12-16T17:33:32.488Z,100061.41
2022-12-16T17:36:18.103Z,100075.22
2022-12-16T17:39:03.520Z,100083.88
2022-12-16T17:41:50.772Z,100087.34
2022-12-16T17:44:36.803Z,100090.78
2022-12-16T17:47:22.644Z,100090.78
2022-12-16T17:50:07.494Z,100102.06
2022-12-16T17:52:52.479Z,100098.59
2022-12-16T17:55:37.536Z,100104.66
2022-12-16T17:58:22.215Z,100102.97
2022-12-16T18:01:06.971Z,100103.84
2022-12-16T18:03:52.331Z,100110.78
2022-12-16T18:06:39.172Z,100111.69
2022-12-16T18:09:24.598Z,100105.69
2022-12-16T18:12:09.572Z,100105.72
2022-12-16T18:14:54.445Z,100110.06
2022-12-16T18:17:39.481Z,100112.72
2022-12-16T18:20:24.746Z,100112.75
2022-12-16T18:23:12.865Z,100115.41
2022-12-16T18:25:58.282Z,100123.28
2022-12-16T18:28:43.490Z,100128.50
2022-12-16T18:31:28.980Z,100129.41
2022-12-16T18:34:13.947Z,100133.75
2022-12-16T18:36:59.166Z,100125.16
2022-12-16T18:39:44.124Z,100125.19
2022-12-16T18:42:29.325Z,100127.88
2022-12-16T18:45:14.436Z,100132.25
2022-12-16T18:47:59.226Z,100124.56
2022-12-16T18:50:44.201Z,100125.53
2022-12-16T18:53:29.322Z,100133.38
2022-12-16T18:56:19.139Z,100142.97
2022-12-16T18:59:04.059Z,100146.41
2022-12-16T19:01:49.071Z,100151.63
2022-12-16T19:04:34.259Z,100151.63
2022-12-16T19:07:19.205Z,100150.78
2022-12-16T19:10:04.100Z,100155.97
2022-12-16T19:12:49.566Z,100155.13
2022-12-16T19:15:39.503Z,100162.06
2022-12-16T19:18:26.235Z,100159.47
2022-12-16T19:21:12.421Z,100160.28
2022-12-16T19:23:57.238Z,100166.34
2022-12-16T19:26:42.514Z,100162.88
2022-12-16T19:29:27.572Z,100170.66
2022-12-16T19:32:12.669Z,100169.78
2022-12-16T19:34:57.576Z,100161.19
2022-12-16T19:37:42.358Z,100172.44
2022-12-16T19:40:28.575Z,100169.88
2022-12-16T19:43:13.387Z,100179.34
2022-12-16T19:45:58.204Z,100175.03
2022-12-16T19:48:43.611Z,100183.66
2022-12-16T19:51:28.410Z,100185.34
2022-12-16T19:54:13.221Z,100185.34
2022-12-16T19:56:57.800Z,100188.78
2022-12-16T19:59:42.636Z,100196.56
2022-12-16T20:02:30.700Z,100199.16
2022-12-16T20:05:16.368Z,100197.41
2022-12-16T20:08:01.317Z,100202.66
2022-12-16T20:10:46.258Z,100201.78
2022-12-16T20:13:32.073Z,100203.47
2022-12-16T20:16:21.573Z,100201.75
2022-12-16T20:19:06.917Z,100200.88
2022-12-16T20:21:56.182Z,100197.41
2022-12-16T20:24:41.800Z,100201.72
2022-12-16T20:27:27.088Z,100207.75
2022-12-16T20:30:11.845Z,100205.16
2022-12-16T20:32:56.620Z,100204.28
2022-12-16T20:35:41.467Z,100205.16
2022-12-16T20:38:27.148Z,100206.91
2022-12-16T20:41:16.761Z,100205.25
2022-12-16T20:44:02.081Z,100214.72
2022-12-16T20:46:49.272Z,100222.50
2022-12-16T20:49:34.339Z,100219.91
2022-12-16T20:52:19.371Z,100217.31
2022-12-16T20:55:04.273Z,100236.38
2022-12-16T20:57:49.691Z,100231.19
2022-12-16T21:00:35.284Z,100230.31
2022-12-16T21:03:19.977Z,100227.69
2022-12-16T21:06:05.444Z,100238.06
2022-12-16T21:08:50.148Z,100238.06
2022-12-16T21:11:35.024Z,100244.09
2022-12-16T21:14:19.736Z,100246.75
2022-12-16T21:17:04.614Z,100246.75
2022-12-16T21:19:49.462Z,100252.81
2022-12-16T21:22:34.358Z,100246.75
2022-12-16T21:25:24.478Z,100257.13
2022-12-16T21:28:13.801Z,100257.94
2022-12-16T21:30:58.481Z,100257.03
2022-12-16T21:33:43.635Z,100263.94
2022-12-16T21:36:45.758Z,100257.84
2022-12-16T21:39:30.894Z,100270.78
2022-12-16T21:42:16.078Z,100268.16
2022-12-16T21:45:00.898Z,100270.72
2022-12-16T21:47:45.570Z,100274.16
2022-12-16T21:50:30.319Z,100273.31
2022-12-16T21:53:15.315Z,100280.19
2022-12-16T21:56:00.247Z,100292.31
2022-12-16T21:58:44.974Z,100286.25
2022-12-16T22:01:29.840Z,100298.41
2022-12-16T22:04:14.912Z,100294.06
2022-12-16T22:06:59.784Z,100295.03
2022-12-16T22:09:44.650Z,100298.53
2022-12-16T22:12:29.525Z,100298.56
2022-12-16T22:15:14.252Z,100303.84
2022-12-16T22:17:59.072Z,100304.75
2022-12-16T22:20:44.825Z,100312.63
2022-12-16T22:23:29.681Z,100311.81
2022-12-16T22:26:16.070Z,100316.22
2022-12-16T22:29:00.840Z,100311.97
2022-12-16T22:31:46.130Z,100322.41
2022-12-16T22:34:31.321Z,100319.00
2022-12-16T22:37:16.066Z,100320.75
2022-12-16T22:40:00.882Z,100319.94
2022-12-16T22:42:46.010Z,100314.81
2022-12-16T22:45:31.041Z,100320.88
2022-12-16T22:48:15.686Z,100315.69
2022-12-16T22:51:00.660Z,100322.59
2022-12-16T22:53:45.789Z,100336.44
2022-12-16T22:56:31.099Z,100334.72
2022-12-16T22:59:16.078Z,100338.19
2022-12-16T23:02:01.315Z,100345.09
2022-12-16T23:04:46.439Z,100344.28
2022-12-16T23:07:31.675Z,100345.16
2022-12-16T23:10:16.973Z,100343.50
2022-12-16T23:13:01.691Z,100346.13
2022-12-16T23:15:46.695Z,100339.28
2022-12-16T23:18:31.811Z,100347.94
2022-12-16T23:21:16.743Z,100344.53
2022-12-16T23:24:01.417Z,100348.88
2022-12-16T23:26:46.366Z,100348.91
2022-12-16T23:29:31.387Z,100348.91
2022-12-16T23:32:16.221Z,100348.94
2022-12-16T23:35:00.944Z,100355.84
2022-12-16T23:37:45.737Z,100356.72
2022-12-16T23:40:30.972Z,100361.91
2022-12-16T23:43:15.770Z,100355.91
2022-12-16T23:46:02.273Z,100365.44
2022-12-16T23:48:47.468Z,100359.41
2022-12-16T23:51:32.125Z,100360.28
2022-12-16T23:54:16.900Z,100364.59
2022-12-16T23:57:01.600Z,100364.59
2022-12-16T23:59:46.557Z,100364.59
